createdAt,value
2023-02-28T00:00:11.676Z,43.17
2023-02-28T00:02:43.467Z,50.27
2023-02-28T00:05:14.318Z,50.73
2023-02-28T00:07:43.880Z,53.53
2023-02-28T00:10:14.514Z,54.30
2023-02-28T00:12:44.130Z,49.67
2023-02-28T00:15:13.826Z,36.63
2023-02-28T00:17:48.674Z,30.33
2023-02-28T00:20:18.477Z,21.37
2023-02-28T00:22:48.714Z,19.83
2023-02-28T00:25:19.198Z,31.97
2023-02-28T00:27:49.155Z,36.40
2023-02-28T00:30:20.770Z,36.90
2023-02-28T00:32:51.453Z,48.20
2023-02-28T00:35:20.692Z,44.27
2023-02-28T00:37:51.072Z,50.80
2023-02-28T00:40:20.100Z,65.10
2023-02-28T00:42:49.083Z,56.90
2023-02-28T00:45:18.131Z,76.57
2023-02-28T00:47:47.676Z,61.77
2023-02-28T00:50:20.120Z,48.07
2023-02-28T00:52:49.215Z,47.07
2023-02-28T00:55:19.761Z,46.97
2023-02-28T00:57:48.716Z,46.07
2023-02-28T01:00:18.254Z,48.90
2023-02-28T01:02:47.239Z,45.00
2023-02-28T01:05:17.182Z,49.67
2023-02-28T01:07:49.312Z,40.00
2023-02-28T01:10:18.859Z,40.97
2023-02-28T01:12:47.670Z,45.40
2023-02-28T01:15:18.616Z,64.50
2023-02-28T01:17:47.605Z,82.73
2023-02-28T01:20:17.285Z,152.87
2023-02-28T01:22:46.309Z,143.50
2023-02-28T01:25:16.957Z,63.53
2023-02-28T01:27:46.682Z,62.40
2023-02-28T01:30:15.951Z,42.30
2023-02-28T01:33:03.607Z,35.23
2023-02-28T01:35:35.831Z,34.37
2023-02-28T01:38:20.824Z,36.30
2023-02-28T01:40:52.198Z,43.13
2023-02-28T01:43:25.377Z,54.60
2023-02-28T01:45:55.182Z,64.23
2023-02-28T01:48:28.435Z,80.83
2023-02-28T01:51:01.041Z,66.47
2023-02-28T01:53:39.240Z,59.30
2023-02-28T01:56:13.096Z,55.00
2023-02-28T01:58:42.960Z,52.47
2023-02-28T02:01:22.716Z,62.80
2023-02-28T02:04:03.900Z,66.00
2023-02-28T02:06:40.708Z,67.63
2023-02-28T02:09:14.354Z,66.37
2023-02-28T02:12:00.308Z,67.30
2023-02-28T02:14:54.436Z,82.53
2023-02-28T02:17:32.091Z,100.00
2023-02-28T02:20:30.021Z,88.10
2023-02-28T02:23:27.941Z,79.03
2023-02-28T02:25:59.085Z,71.33
2023-02-28T02:29:03.641Z,61.50
2023-02-28T02:32:02.381Z,54.23
2023-02-28T02:34:48.736Z,55.30
2023-02-28T02:37:30.390Z,55.73
2023-02-28T02:40:06.599Z,48.43
2023-02-28T02:42:43.832Z,48.00
2023-02-28T02:45:17.308Z,43.37
2023-02-28T02:47:47.721Z,41.20
2023-02-28T02:50:23.719Z,41.70
2023-02-28T02:52:58.496Z,36.87
2023-02-28T02:55:28.200Z,33.90
2023-02-28T02:58:01.167Z,36.00
2023-02-28T03:00:39.865Z,37.90
2023-02-28T03:03:11.909Z,106.10
2023-02-28T03:05:48.383Z,49.30
2023-02-28T03:08:18.479Z,48.80
2023-02-28T03:10:50.800Z,42.63
2023-02-28T03:13:57.261Z,46.43
2023-02-28T03:16:35.918Z,61.77
2023-02-28T03:19:26.398Z,85.93
2023-02-28T03:22:12.158Z,57.93
2023-02-28T03:24:48.270Z,73.50
2023-02-28T03:27:23.761Z,64.30
2023-02-28T03:29:59.920Z,67.33
2023-02-28T03:32:32.218Z,86.93
2023-02-28T03:35:07.709Z,88.50
2023-02-28T03:37:43.374Z,103.10
2023-02-28T03:40:35.777Z,105.50
2023-02-28T03:43:10.218Z,129.43
2023-02-28T03:45:42.177Z,132.47
2023-02-28T03:48:17.566Z,131.33
2023-02-28T03:50:50.401Z,113.47
2023-02-28T03:53:23.851Z,115.90
2023-02-28T03:55:56.730Z,109.67
2023-02-28T03:58:30.807Z,107.17
2023-02-28T04:01:09.278Z,99.30
2023-02-28T04:03:38.776Z,102.73
2023-02-28T04:06:10.027Z,104.20
2023-02-28T04:08:40.409Z,120.67
2023-02-28T04:11:34.848Z,106.50
2023-02-28T04:14:03.883Z,82.70
2023-02-28T04:16:35.625Z,70.43
2023-02-28T04:19:06.403Z,57.73
2023-02-28T04:21:40.183Z,40.40
2023-02-28T04:24:15.474Z,31.93
2023-02-28T04:26:46.677Z,25.57
2023-02-28T04:29:20.330Z,19.53
2023-02-28T04:31:49.672Z,19.87
2023-02-28T04:34:20.149Z,20.67
2023-02-28T04:36:59.628Z,20.43
2023-02-28T04:39:39.884Z,20.47
2023-02-28T04:42:09.035Z,21.43
2023-02-28T04:44:37.919Z,21.30
2023-02-28T04:47:06.828Z,22.27
2023-02-28T04:49:35.690Z,22.77
2023-02-28T04:52:04.753Z,23.63
2023-02-28T04:54:33.632Z,22.37
2023-02-28T04:57:05.635Z,29.30
2023-02-28T04:59:34.856Z,27.57
2023-02-28T05:02:13.708Z,28.33
2023-02-28T05:04:45.431Z,32.30
2023-02-28T05:07:14.616Z,23.30
2023-02-28T05:09:43.407Z,21.27
2023-02-28T05:12:13.793Z,20.87
2023-02-28T05:14:42.782Z,20.57
2023-02-28T05:17:26.011Z,20.10
2023-02-28T05:20:01.041Z,19.23
2023-02-28T05:22:35.570Z,19.63
2023-02-28T05:25:04.575Z,18.20
2023-02-28T05:27:35.133Z,17.87
2023-02-28T05:30:05.648Z,15.13
2023-02-28T05:32:34.624Z,17.03
2023-02-28T05:35:03.649Z,17.60
2023-02-28T05:37:32.510Z,17.23
2023-02-28T05:40:01.509Z,17.00
2023-02-28T05:42:30.464Z,17.50
2023-02-28T05:45:03.184Z,16.73
2023-02-28T05:47:32.166Z,17.90
2023-02-28T05:50:01.226Z,18.37
2023-02-28T05:52:31.115Z,17.13
2023-02-28T05:55:00.183Z,18.10
2023-02-28T05:57:29.064Z,18.33
2023-02-28T05:59:57.979Z,19.97
2023-02-28T06:02:28.431Z,49.77
2023-02-28T06:04:57.409Z,22.77
2023-02-28T06:07:26.211Z,16.20
2023-02-28T06:09:55.107Z,19.10
2023-02-28T06:12:24.068Z,19.73
2023-02-28T06:14:53.376Z,17.17
2023-02-28T06:17:22.754Z,19.33
2023-02-28T06:20:01.880Z,23.13
2023-02-28T06:22:32.677Z,21.33
2023-02-28T06:25:02.353Z,21.03
2023-02-28T06:27:31.221Z,20.20
2023-02-28T06:30:00.346Z,18.73
2023-02-28T06:32:29.380Z,22.93
2023-02-28T06:34:59.683Z,20.23
2023-02-28T06:37:28.794Z,18.97
2023-02-28T06:39:58.184Z,23.87
2023-02-28T06:42:30.001Z,21.03
2023-02-28T06:45:00.352Z,18.17
2023-02-28T06:47:29.469Z,20.23
2023-02-28T06:49:59.731Z,27.57
2023-02-28T06:52:28.617Z,24.07
2023-02-28T06:55:02.304Z,22.13
2023-02-28T06:57:32.977Z,18.10
2023-02-28T07:00:02.406Z,19.27
2023-02-28T07:02:31.705Z,17.57
2023-02-28T07:05:02.081Z,20.50
2023-02-28T07:07:37.471Z,22.20
2023-02-28T07:10:07.199Z,22.80
2023-02-28T07:12:36.233Z,25.03
2023-02-28T07:15:05.365Z,39.13
2023-02-28T07:17:34.357Z,32.47
2023-02-28T07:20:06.343Z,33.57
2023-02-28T07:22:35.740Z,27.20
2023-02-28T07:25:04.694Z,23.20
2023-02-28T07:27:33.569Z,23.97
2023-02-28T07:30:04.805Z,24.33
2023-02-28T07:32:33.727Z,23.57
2023-02-28T07:35:04.086Z,27.93
2023-02-28T07:37:37.636Z,25.73
2023-02-28T07:40:09.688Z,26.53
2023-02-28T07:42:39.028Z,25.67
2023-02-28T07:45:09.475Z,28.60
2023-02-28T07:47:38.832Z,29.33
2023-02-28T07:50:11.052Z,65.87
2023-02-28T07:52:40.253Z,81.77
2023-02-28T07:55:12.168Z,27.70
2023-02-28T07:57:46.904Z,26.80
2023-02-28T08:00:17.668Z,29.10
2023-02-28T08:02:50.061Z,28.37
2023-02-28T08:05:22.252Z,25.63
2023-02-28T08:07:52.468Z,23.00
2023-02-28T08:10:21.517Z,26.00
2023-02-28T08:12:50.477Z,25.97
2023-02-28T08:15:23.684Z,25.87
2023-02-28T08:18:00.200Z,27.27
2023-02-28T08:20:32.235Z,28.23
2023-02-28T08:23:09.707Z,28.80
2023-02-28T08:25:43.392Z,28.30
2023-02-28T08:28:14.302Z,29.47
2023-02-28T08:31:02.515Z,33.50
2023-02-28T08:33:33.402Z,32.97
2023-02-28T08:36:04.317Z,32.17
2023-02-28T08:38:38.127Z,23.50
2023-02-28T08:41:10.496Z,24.23
2023-02-28T08:43:40.059Z,19.80
2023-02-28T08:46:10.798Z,20.60
2023-02-28T08:48:40.103Z,21.33
2023-02-28T08:51:12.787Z,21.00
2023-02-28T08:53:42.474Z,24.47
2023-02-28T08:56:13.390Z,30.33
2023-02-28T08:58:42.629Z,27.17
2023-02-28T09:01:15.110Z,28.87
2023-02-28T09:03:47.233Z,25.67
2023-02-28T09:06:18.997Z,27.00
2023-02-28T09:08:48.009Z,20.73
2023-02-28T09:11:24.477Z,16.20
2023-02-28T09:13:54.311Z,17.80
2023-02-28T09:16:23.631Z,16.53
2023-02-28T09:18:52.564Z,16.37
2023-02-28T09:21:22.833Z,16.73
2023-02-28T09:23:52.966Z,14.33
2023-02-28T09:26:24.675Z,14.30
2023-02-28T09:28:54.391Z,14.93
2023-02-28T09:31:25.749Z,16.80
2023-02-28T09:33:56.947Z,16.47
2023-02-28T09:36:41.831Z,15.67
2023-02-28T09:39:13.512Z,16.53
2023-02-28T09:41:52.072Z,17.17
2023-02-28T09:44:27.614Z,17.27
2023-02-28T09:47:00.916Z,16.27
2023-02-28T09:49:38.292Z,16.03
2023-02-28T09:52:13.387Z,14.33
2023-02-28T09:54:42.517Z,13.57
2023-02-28T09:57:20.185Z,12.37
2023-02-28T10:00:06.074Z,13.57
2023-02-28T10:02:54.430Z,14.20
2023-02-28T10:05:28.270Z,12.53
2023-02-28T10:08:06.321Z,14.20
2023-02-28T10:10:41.662Z,13.30
2023-02-28T10:13:20.100Z,14.03
2023-02-28T10:15:52.484Z,14.80
2023-02-28T10:18:27.044Z,13.40
2023-02-28T10:20:58.207Z,12.37
2023-02-28T10:23:31.228Z,13.03
2023-02-28T10:26:02.692Z,11.70
2023-02-28T10:28:33.486Z,12.37
2023-02-28T10:31:02.875Z,12.03
2023-02-28T10:33:33.930Z,11.57
2023-02-28T10:36:04.165Z,12.20
2023-02-28T10:38:38.622Z,15.83
2023-02-28T10:41:09.794Z,13.97
2023-02-28T10:43:40.372Z,14.37
2023-02-28T10:46:27.117Z,12.20
2023-02-28T10:49:07.942Z,12.63
2023-02-28T10:51:41.907Z,11.00
2023-02-28T10:54:21.112Z,11.43
2023-02-28T10:57:10.244Z,11.97
2023-02-28T10:59:39.348Z,14.47
2023-02-28T11:05:03.842Z,10.80
2023-02-28T11:07:41.463Z,11.00
2023-02-28T11:10:24.253Z,11.73
2023-02-28T11:12:58.710Z,11.17
2023-02-28T11:15:32.154Z,11.77
2023-02-28T11:18:04.807Z,12.80
2023-02-28T11:20:36.402Z,12.33
2023-02-28T11:23:07.454Z,13.37
2023-02-28T11:25:40.443Z,14.17
2023-02-28T11:28:29.647Z,17.33
2023-02-28T11:31:16.778Z,19.33
2023-02-28T11:33:51.361Z,17.40
2023-02-28T11:36:25.828Z,18.80
2023-02-28T11:38:56.490Z,19.37
2023-02-28T11:41:51.273Z,25.70
2023-02-28T11:44:36.469Z,28.20
2023-02-28T11:47:12.496Z,36.47
2023-02-28T11:49:48.830Z,17.13
2023-02-28T11:52:27.063Z,117.83
2023-02-28T11:55:16.440Z,29.73
2023-02-28T11:58:03.957Z,93.27
2023-02-28T12:00:42.903Z,27.87
2023-02-28T12:03:24.939Z,26.47
2023-02-28T12:06:03.299Z,80.03
2023-02-28T12:08:46.687Z,147.23
2023-02-28T12:11:22.196Z,17.90
2023-02-28T12:14:03.985Z,31.60
2023-02-28T12:16:47.294Z,74.97
2023-02-28T12:19:22.440Z,101.70
2023-02-28T12:22:05.982Z,115.27
2023-02-28T12:25:01.327Z,119.87
2023-02-28T12:27:34.528Z,181.10
2023-02-28T12:30:08.632Z,84.93
2023-02-28T12:32:41.638Z,121.97
2023-02-28T12:35:16.702Z,72.80
2023-02-28T12:37:50.395Z,31.27
2023-02-28T12:40:22.774Z,56.10
2023-02-28T12:42:55.194Z,92.67
2023-02-28T12:45:28.606Z,75.20
2023-02-28T12:48:04.142Z,32.57
2023-02-28T12:50:34.797Z,27.37
2023-02-28T12:53:11.598Z,139.70
2023-02-28T12:55:45.553Z,50.23
2023-02-28T12:58:23.248Z,105.37
2023-02-28T13:01:16.018Z,33.90
2023-02-28T13:04:16.482Z,13.20
2023-02-28T13:07:09.072Z,19.57
2023-02-28T13:09:39.374Z,22.77
2023-02-28T13:12:16.688Z,11.90
2023-02-28T13:14:46.239Z,9.93
2023-02-28T13:17:22.504Z,39.73
2023-02-28T13:20:01.790Z,25.00
2023-02-28T13:22:43.517Z,10.47
2023-02-28T13:25:55.885Z,20.13
2023-02-28T13:29:10.258Z,74.63
2023-02-28T13:32:16.192Z,73.23
2023-02-28T13:35:30.547Z,128.00
2023-02-28T13:38:24.141Z,9.80
2023-02-28T13:40:53.307Z,9.77
2023-02-28T13:43:34.619Z,10.93
2023-02-28T13:46:14.636Z,10.63
2023-02-28T13:48:44.333Z,14.10
2023-02-28T13:51:43.408Z,12.27
2023-02-28T13:54:36.874Z,10.70
2023-02-28T13:57:24.453Z,9.43
2023-02-28T14:00:06.722Z,9.97
2023-02-28T14:03:14.173Z,9.87
2023-02-28T14:05:43.755Z,10.03
2023-02-28T14:08:22.114Z,86.03
2023-02-28T14:10:53.227Z,62.90
2023-02-28T14:13:46.226Z,123.87
2023-02-28T14:16:17.811Z,83.83
2023-02-28T14:18:57.844Z,62.87
2023-02-28T14:21:29.942Z,130.20
2023-02-28T14:24:29.085Z,121.90
2023-02-28T14:27:17.786Z,88.53
2023-02-28T14:30:13.849Z,104.60
2023-02-28T14:32:50.675Z,27.57
2023-02-28T14:35:31.863Z,128.50
2023-02-28T14:38:00.996Z,149.90
2023-02-28T14:40:35.420Z,158.57
2023-02-28T14:43:06.290Z,158.90
2023-02-28T14:45:38.717Z,131.87
2023-02-28T14:48:12.390Z,178.47
2023-02-28T14:50:43.454Z,165.90
2023-02-28T14:53:20.652Z,95.20
2023-02-28T14:55:54.103Z,15.57
2023-02-28T14:58:27.048Z,21.93
2023-02-28T15:00:58.024Z,25.60
2023-02-28T15:03:36.713Z,33.63
2023-02-28T15:06:08.278Z,52.20
2023-02-28T15:08:37.569Z,62.37
2023-02-28T15:11:15.296Z,66.87
2023-02-28T15:13:47.490Z,36.47
2023-02-28T15:16:20.860Z,24.27
2023-02-28T15:18:53.750Z,22.57
2023-02-28T15:21:25.059Z,21.77
2023-02-28T15:23:57.559Z,21.63
2023-02-28T15:26:34.398Z,21.07
2023-02-28T15:29:06.871Z,21.47
2023-02-28T15:31:55.347Z,23.47
2023-02-28T15:34:36.978Z,23.93
2023-02-28T15:37:25.155Z,25.23
2023-02-28T15:39:55.384Z,25.27
2023-02-28T15:42:30.488Z,25.17
2023-02-28T15:45:00.847Z,25.80
2023-02-28T15:47:31.751Z,29.10
2023-02-28T15:50:03.168Z,28.10
2023-02-28T15:52:39.974Z,28.40
2023-02-28T15:55:14.967Z,26.00
2023-02-28T15:57:47.475Z,28.40
2023-02-28T16:00:21.132Z,28.83
2023-02-28T16:02:51.559Z,43.77
2023-02-28T16:05:33.076Z,44.40
2023-02-28T16:08:05.060Z,102.00
2023-02-28T16:10:34.373Z,115.23
2023-02-28T16:13:05.693Z,128.47
2023-02-28T16:15:42.711Z,72.67
2023-02-28T16:18:14.259Z,51.33
2023-02-28T16:20:45.571Z,46.97
2023-02-28T16:23:14.619Z,49.57
2023-02-28T16:25:47.184Z,31.83
2023-02-28T16:28:22.773Z,23.53
2023-02-28T16:30:54.079Z,34.63
2023-02-28T16:33:24.851Z,48.27
2023-02-28T16:35:55.844Z,30.43
2023-02-28T16:38:26.483Z,20.87
2023-02-28T16:40:59.045Z,22.00
2023-02-28T16:43:35.318Z,19.37
2023-02-28T16:46:04.912Z,17.70
2023-02-28T16:48:33.814Z,18.13
2023-02-28T16:51:05.479Z,18.57
2023-02-28T16:53:37.461Z,19.10
2023-02-28T16:56:08.148Z,21.27
2023-02-28T16:58:38.609Z,19.87
2023-02-28T17:01:08.126Z,18.63
2023-02-28T17:03:37.959Z,18.13
2023-02-28T17:06:08.596Z,19.13
2023-02-28T17:08:37.638Z,20.47
2023-02-28T17:11:06.745Z,25.27
2023-02-28T17:13:35.897Z,90.47
2023-02-28T17:16:06.909Z,111.47
2023-02-28T17:18:36.043Z,111.07
2023-02-28T17:21:04.990Z,135.03
2023-02-28T17:23:34.151Z,86.37
2023-02-28T17:26:03.553Z,143.83
2023-02-28T17:28:32.984Z,130.53
2023-02-28T17:31:01.983Z,101.77
2023-02-28T17:33:32.330Z,98.27
2023-02-28T17:36:01.425Z,115.03
2023-02-28T17:38:30.292Z,119.47
2023-02-28T17:40:59.368Z,125.90
2023-02-28T17:43:28.516Z,98.87
2023-02-28T17:45:59.423Z,124.13
2023-02-28T17:48:29.611Z,100.10
2023-02-28T17:51:01.224Z,47.00
2023-02-28T17:53:30.145Z,36.93
2023-02-28T17:55:59.373Z,21.63
2023-02-28T17:58:28.702Z,32.63
2023-02-28T18:00:57.593Z,76.43
2023-02-28T18:03:27.121Z,48.83
2023-02-28T18:05:58.242Z,23.63
2023-02-28T18:08:28.720Z,23.77
2023-02-28T18:10:57.756Z,133.27
2023-02-28T18:13:28.909Z,115.83
2023-02-28T18:15:57.971Z,146.93
2023-02-28T18:18:26.900Z,184.80
2023-02-28T18:20:55.815Z,166.13
2023-02-28T18:23:24.764Z,129.10
2023-02-28T18:25:57.397Z,126.37
2023-02-28T18:28:29.266Z,39.27
2023-02-28T18:30:58.925Z,54.33
2023-02-28T18:33:28.062Z,92.27
2023-02-28T18:36:00.417Z,25.77
2023-02-28T18:38:31.809Z,18.67
2023-02-28T18:41:05.190Z,17.73
2023-02-28T18:43:36.438Z,17.93
2023-02-28T18:46:12.669Z,17.80
2023-02-28T18:48:42.541Z,17.53
2023-02-28T18:51:14.236Z,17.27
2023-02-28T18:53:45.904Z,16.67
2023-02-28T18:56:19.688Z,17.20
2023-02-28T18:59:02.000Z,16.80
2023-02-28T19:01:33.907Z,19.33
2023-02-28T19:04:04.157Z,17.20
2023-02-28T19:06:35.642Z,16.93
2023-02-28T19:09:06.086Z,16.43
2023-02-28T19:11:37.172Z,14.93
2023-02-28T19:14:06.606Z,15.03
2023-02-28T19:16:39.225Z,15.63
2023-02-28T19:19:09.589Z,17.00
2023-02-28T19:21:40.534Z,19.47
2023-02-28T19:24:10.284Z,20.70
2023-02-28T19:26:41.364Z,20.93
2023-02-28T19:29:11.284Z,22.43
2023-02-28T19:31:40.979Z,32.93
2023-02-28T19:34:10.372Z,35.20
2023-02-28T19:36:39.577Z,34.47
2023-02-28T19:39:09.030Z,31.70
2023-02-28T19:41:39.936Z,29.33
2023-02-28T19:44:27.889Z,30.33
2023-02-28T19:46:56.783Z,30.70
2023-02-28T19:49:26.090Z,30.93
2023-02-28T19:51:56.626Z,30.63
2023-02-28T19:54:26.520Z,34.53
2023-02-28T19:56:58.606Z,32.80
2023-02-28T19:59:38.131Z,32.83
2023-02-28T20:02:08.565Z,33.53
2023-02-28T20:04:37.601Z,35.17
2023-02-28T20:07:06.789Z,36.70
2023-02-28T20:09:35.814Z,37.17
2023-02-28T20:12:09.303Z,43.83
2023-02-28T20:14:43.648Z,54.43
2023-02-28T20:17:12.513Z,45.60
2023-02-28T20:19:41.686Z,43.03
2023-02-28T20:22:12.441Z,39.07
2023-02-28T20:24:42.351Z,37.50
2023-02-28T20:27:12.905Z,36.17
2023-02-28T20:29:42.761Z,35.53
2023-02-28T20:32:14.239Z,37.20
2023-02-28T20:34:45.856Z,36.77
2023-02-28T20:37:14.941Z,38.03
2023-02-28T20:39:43.932Z,37.13
2023-02-28T20:42:14.417Z,36.50
2023-02-28T20:44:43.650Z,38.53
2023-02-28T20:47:12.567Z,38.20
2023-02-28T20:49:41.734Z,37.30
2023-02-28T20:52:10.857Z,38.00
2023-02-28T20:54:39.751Z,40.43
2023-02-28T20:57:10.211Z,40.60
2023-02-28T20:59:42.189Z,36.97
2023-02-28T21:02:15.899Z,38.07
2023-02-28T21:04:45.062Z,37.73
2023-02-28T21:07:13.925Z,37.47
2023-02-28T21:09:43.218Z,38.83
2023-02-28T21:12:12.090Z,37.60
2023-02-28T21:14:42.374Z,37.63
2023-02-28T21:17:11.878Z,37.40
2023-02-28T21:19:40.722Z,39.37
2023-02-28T21:22:09.717Z,40.33
2023-02-28T21:24:39.480Z,42.67
2023-02-28T21:27:08.577Z,40.33
2023-02-28T21:29:37.557Z,41.23
2023-02-28T21:32:08.799Z,39.60
2023-02-28T21:34:40.466Z,37.57
2023-02-28T21:37:10.308Z,38.57
2023-02-28T21:39:39.533Z,38.33
2023-02-28T21:42:11.596Z,38.77
2023-02-28T21:44:40.623Z,38.83
2023-02-28T21:47:11.070Z,41.40
2023-02-28T21:49:43.650Z,41.07
2023-02-28T21:52:12.636Z,45.60
2023-02-28T21:54:46.503Z,48.40
2023-02-28T21:57:20.990Z,47.27
2023-02-28T21:59:50.183Z,44.50
2023-02-28T22:02:20.644Z,50.17
2023-02-28T22:04:49.716Z,50.27
2023-02-28T22:07:18.533Z,49.57
2023-02-28T22:09:47.504Z,49.27
2023-02-28T22:12:16.657Z,51.27
2023-02-28T22:14:46.325Z,51.87
2023-02-28T22:17:15.233Z,48.93
2023-02-28T22:19:45.693Z,48.03
2023-02-28T22:22:14.740Z,46.17
2023-02-28T22:24:43.691Z,53.67
2023-02-28T22:27:12.496Z,55.30
2023-02-28T22:29:41.715Z,71.77
2023-02-28T22:32:11.609Z,57.57
2023-02-28T22:34:40.459Z,51.10
2023-02-28T22:37:10.903Z,50.80
2023-02-28T22:39:39.820Z,47.67
2023-02-28T22:42:09.996Z,48.03
2023-02-28T22:44:39.088Z,48.03
2023-02-28T22:47:08.436Z,47.20
2023-02-28T22:49:43.297Z,46.63
2023-02-28T22:52:13.616Z,47.73
2023-02-28T22:54:42.601Z,49.37
2023-02-28T22:57:12.769Z,47.23
2023-02-28T22:59:41.605Z,47.47
2023-02-28T23:02:10.673Z,46.90
2023-02-28T23:04:39.565Z,45.67
2023-02-28T23:07:08.428Z,46.40
2023-02-28T23:09:39.414Z,46.30
2023-02-28T23:12:08.627Z,45.63
2023-02-28T23:14:37.551Z,41.80
2023-02-28T23:17:06.514Z,44.37
2023-02-28T23:19:35.379Z,47.50
2023-02-28T23:22:05.867Z,42.73
2023-02-28T23:24:36.902Z,41.70
2023-02-28T23:27:12.770Z,111.87
2023-02-28T23:29:42.370Z,87.77
2023-02-28T23:32:11.373Z,77.40
2023-02-28T23:34:40.327Z,87.10
2023-02-28T23:37:09.766Z,110.83
2023-02-28T23:39:38.680Z,113.80
2023-02-28T23:42:09.074Z,99.27
2023-02-28T23:44:38.006Z,112.57
2023-02-28T23:47:06.896Z,98.63
2023-02-28T23:49:35.867Z,128.77
2023-02-28T23:52:05.813Z,117.40
2023-02-28T23:54:34.894Z,139.77
2023-02-28T23:57:03.747Z,59.20
2023-02-28T23:59:34.011Z,39.17
